Saint Lawrence, South Dakota
Current Conditions -  °F | °C
As of 6:12 AM on Friday 24 Oct 2014 (Local Time) from KHON Reporting Station
Haze Haze  
Wind Chill:   Ceiling: Unl
Heat Index:   Visibility: 5mi
Dew Point:   Wind: 6mph
Humidity: 100%   Direction: 290°WNW
Pressure: 29.84"   Gusts: NA
Location:  44.52°N, 98.94°W
Report Text: KHON 241112Z AUTO 29005KT 5SM BR SCT001 03/03 A2984 RMK AO2 T00280028 $
Loading
Personal Weather Stations






























Interactive Weather Map
Tropical Storm Tracking
New forecast layout! Learn more

10-Day Weather Forecast

Advertisements
Track Severe Weather on mobile